Time;durP1;ratioP1;P1;durP2;ratioP2;P2;SDS_P1;SDS_P2;PMS_P1;PMS_P2;Temp;Humidity;BMP_temperature;BMP_pressure;BME280_temperature;BME280_humidity;BME280_pressure;Samples;Min_cycle;Max_cycle;Signal;HPM_P1;HPM_P2
2021/12/25 00:01:53;;;;;;;132.53;62.83;;;;;;;0.83;100.00;99232.50;5029503;28;20288;-61
2021/12/25 00:04:20;;;;;;;124.27;60.67;;;;;;;0.75;100.00;99231.59;5029740;28;20283;-55
2021/12/25 00:06:48;;;;;;;136.27;61.77;;;;;;;0.76;100.00;99228.22;5029719;28;20658;-60
2021/12/25 00:09:14;;;;;;;123.20;58.37;;;;;;;0.80;100.00;99243.53;5029487;28;20193;-60
2021/12/25 00:11:41;;;;;;;127.00;58.77;;;;;;;0.67;100.00;99213.69;5029452;28;20193;-56
2021/12/25 00:14:13;;;;;;;124.33;58.30;;;;;;;0.90;100.00;99231.69;5029248;28;20204;-55
2021/12/25 00:16:40;;;;;;;111.67;54.43;;;;;;;0.66;100.00;99199.22;5029381;28;20728;-56
2021/12/25 00:19:08;;;;;;;122.63;57.53;;;;;;;0.91;100.00;99210.38;5029472;28;20197;-56
2021/12/25 00:21:35;;;;;;;129.20;58.83;;;;;;;0.89;100.00;99212.97;5032861;28;20555;-61
2021/12/25 00:24:03;;;;;;;128.13;60.50;;;;;;;0.93;100.00;99219.78;5033146;28;20205;-56
2021/12/25 00:26:51;;;;;;;131.20;60.97;;;;;;;0.88;100.00;99210.38;5033014;28;20198;-56
2021/12/25 00:29:49;;;;;;;131.90;62.23;;;;;;;1.03;100.00;99221.50;5032993;28;20198;-56
2021/12/25 00:32:40;;;;;;;132.07;62.23;;;;;;;1.01;100.00;99209.59;5033232;28;20672;-61
2021/12/25 00:35:07;;;;;;;131.63;64.63;;;;;;;0.99;100.00;99213.84;5032988;28;20201;-61
2021/12/25 00:37:34;;;;;;;134.37;66.70;;;;;;;0.97;100.00;99213.84;5032836;28;20315;-60
2021/12/25 00:40:01;;;;;;;137.70;66.63;;;;;;;1.01;100.00;99219.81;5032863;28;20200;-59
2021/12/25 00:42:28;;;;;;;139.90;68.60;;;;;;;0.89;100.00;99215.50;5032810;28;20198;-56
2021/12/25 00:44:56;;;;;;;144.50;69.40;;;;;;;0.91;100.00;99206.13;5032901;28;20650;-56
2021/12/25 00:47:23;;;;;;;139.47;68.87;;;;;;;0.86;100.00;99194.19;5032747;28;20316;-57
2021/12/25 00:49:50;;;;;;;132.47;66.20;;;;;;;0.66;100.00;99205.16;5032725;28;20697;-56
2021/12/25 00:52:17;;;;;;;143.80;66.67;;;;;;;0.62;100.00;99208.53;5032509;28;20235;-56
2021/12/25 00:54:44;;;;;;;155.30;69.23;;;;;;;0.47;100.00;99193.13;5032492;28;20296;-56
2021/12/25 00:57:11;;;;;;;149.83;72.57;;;;;;;0.54;100.00;99207.66;5032378;28;20232;-61
2021/12/25 00:59:38;;;;;;;157.10;76.37;;;;;;;0.58;100.00;99203.38;5032579;28;20280;-56
2021/12/25 01:02:07;;;;;;;166.93;77.40;;;;;;;0.77;100.00;99200.13;5032496;28;20280;-56
2021/12/25 01:04:34;;;;;;;156.57;76.07;;;;;;;0.73;100.00;99177.94;5032142;28;20320;-56
2021/12/25 01:07:01;;;;;;;158.27;76.40;;;;;;;0.87;100.00;99211.22;5032658;28;20736;-60
2021/12/25 01:09:28;;;;;;;157.80;75.90;;;;;;;0.90;100.00;99212.13;5032396;28;20204;-60
2021/12/25 01:11:56;;;;;;;158.90;76.27;;;;;;;0.94;100.00;99220.63;5032228;28;20198;-60
2021/12/25 01:14:32;;;;;;;156.13;74.03;;;;;;;1.02;100.00;99211.28;5032110;28;20243;-60
2021/12/25 01:30:53;;;;;;;129.17;63.27;;;;;;;0.66;100.00;99211.97;5006107;28;20201;-55
2021/12/25 01:36:46;;;;;;;124.93;56.93;;;;;;;0.63;100.00;99228.13;5087520;27;20560;-54
2021/12/25 01:39:18;;;;;;;106.87;51.13;;;;;;;0.49;100.00;99211.84;5087552;28;20199;-56
2021/12/25 01:50:07;;;;;;;106.20;51.63;;;;;;;0.32;100.00;99221.97;5087437;28;20197;-59
2021/12/25 01:52:36;;;;;;;109.23;52.87;;;;;;;0.17;100.00;99203.13;5087231;28;20230;-60
2021/12/25 01:55:08;;;;;;;115.30;54.60;;;;;;;0.41;100.00;99215.22;5087000;28;20223;-60
2021/12/25 01:57:35;;;;;;;109.73;54.23;;;;;;;0.40;100.00;99209.25;5087117;28;20666;-60
2021/12/25 02:00:06;;;;;;;122.50;58.10;;;;;;;0.36;100.00;99207.50;5087107;28;20282;-60
2021/12/25 02:02:33;;;;;;;130.93;59.43;;;;;;;0.05;100.00;99180.06;5087007;28;20206;-60
2021/12/25 02:05:00;;;;;;;117.47;58.23;;;;;;;0.25;100.00;99198.91;5086898;28;20586;-60
2021/12/25 02:07:27;;;;;;;127.87;60.07;;;;;;;0.28;100.00;99196.41;5086871;28;20651;-55
2021/12/25 02:09:55;;;;;;;124.40;58.07;;;;;;;0.24;100.00;99189.56;5086857;28;20200;-56
2021/12/25 02:12:22;;;;;;;116.57;57.77;;;;;;;0.25;100.00;99186.16;5086889;28;20276;-56
2021/12/25 02:14:51;;;;;;;127.17;60.53;;;;;;;0.26;100.00;99183.63;5086675;28;20221;-56
2021/12/25 02:17:24;;;;;;;126.20;61.87;;;;;;;0.32;100.00;99185.38;5086849;28;20227;-56
2021/12/25 02:20:11;;;;;;;143.70;68.80;;;;;;;0.36;100.00;99182.84;5086654;28;20274;-55
2021/12/25 02:22:38;;;;;;;143.53;67.17;;;;;;;0.42;100.00;99194.81;5086908;28;20203;-55
2021/12/25 02:25:05;;;;;;;146.93;69.10;;;;;;;0.19;100.00;99151.25;5086866;28;20237;-56
2021/12/25 02:27:32;;;;;;;151.73;70.10;;;;;;;0.35;100.00;99191.34;5086639;28;20290;-56
2021/12/25 02:29:59;;;;;;;144.20;66.10;;;;;;;0.37;100.00;99196.44;5086623;28;20283;-56
2021/12/25 02:32:26;;;;;;;133.63;64.87;;;;;;;0.37;100.00;99191.34;5086451;28;20206;-56
2021/12/25 02:34:53;;;;;;;139.17;65.53;;;;;;;0.32;100.00;99199.00;5086244;28;20232;-54
2021/12/25 02:37:21;;;;;;;130.97;60.73;;;;;;;0.25;100.00;99187.00;5086639;28;20198;-55
2021/12/25 02:39:49;;;;;;;132.33;60.70;;;;;;;0.33;100.00;99198.16;5086481;28;20198;-55
2021/12/25 02:42:16;;;;;;;135.20;62.80;;;;;;;0.43;100.00;99183.75;5086627;28;20675;-60
2021/12/25 02:44:42;;;;;;;135.33;62.03;;;;;;;0.42;100.00;99182.03;5086312;28;20585;-55
2021/12/25 02:47:16;;;;;;;134.63;64.63;;;;;;;0.33;100.00;99192.19;5075979;28;20204;-55
2021/12/25 02:49:48;;;;;;;130.47;62.13;;;;;;;0.07;100.00;99163.94;5072876;28;20200;-55
2021/12/25 02:52:15;;;;;;;136.53;61.23;;;;;;;0.35;100.00;99191.34;5072916;28;20295;-60
2021/12/25 02:54:44;;;;;;;135.67;61.30;;;;;;;0.39;100.00;99187.13;5072449;28;20242;-61
2021/12/25 02:57:11;;;;;;;128.30;60.30;;;;;;;0.29;100.00;99177.69;5072495;28;20194;-60
2021/12/25 02:59:38;;;;;;;137.93;63.10;;;;;;;0.26;100.00;99170.00;5072436;28;20291;-60
2021/12/25 03:02:07;;;;;;;118.27;57.13;;;;;;;0.30;100.00;99181.97;5072581;28;20283;-56
2021/12/25 03:04:36;;;;;;;111.03;52.40;;;;;;;0.18;100.00;99169.09;5072446;28;20205;-60
2021/12/25 03:07:03;;;;;;;114.70;54.27;;;;;;;0.20;100.00;99190.41;5072309;28;20286;-62
2021/12/25 03:09:30;;;;;;;107.10;52.70;;;;;;;0.06;100.00;99180.06;5072219;28;20206;-56
2021/12/25 03:12:02;;;;;;;93.23;46.40;;;;;;;0.17;100.00;99191.22;5072212;28;20205;-60
2021/12/25 03:14:38;;;;;;;88.17;45.63;;;;;;;0.03;100.00;99171.53;5072393;28;20548;-56
2021/12/25 03:17:05;;;;;;;95.10;47.53;;;;;;;0.29;100.00;99221.09;5072227;28;20283;-60
2021/12/25 03:19:33;;;;;;;88.33;47.87;;;;;;;0.42;100.00;99216.91;5072150;28;20198;-55
2021/12/25 03:22:02;;;;;;;92.90;47.27;;;;;;;0.40;100.00;99222.00;5072043;28;20203;-55
2021/12/25 03:24:29;;;;;;;89.03;44.47;;;;;;;0.28;100.00;99209.16;5071928;28;20590;-54
2021/12/25 03:26:58;;;;;;;98.57;45.90;;;;;;;0.44;100.00;99228.88;5071981;28;20282;-60
2021/12/25 03:29:26;;;;;;;84.63;44.07;;;;;;;0.46;100.00;99224.59;5072130;28;20620;-60
2021/12/25 03:31:53;;;;;;;93.37;46.23;;;;;;;0.30;100.00;99212.59;5072059;28;20282;-61
2021/12/25 03:34:20;;;;;;;94.23;46.43;;;;;;;0.39;100.00;99227.97;5071682;28;20314;-60
2021/12/25 03:36:47;;;;;;;97.67;45.50;;;;;;;0.22;100.00;99237.19;5071730;28;20217;-61
2021/12/25 03:39:15;;;;;;;96.27;45.90;;;;;;;0.07;100.00;99226.84;5071665;28;20202;-60
2021/12/25 03:41:42;;;;;;;87.53;45.63;;;;;;;0.21;100.00;99228.69;5071872;28;20198;-56
2021/12/25 03:44:10;;;;;;;87.10;45.77;;;;;;;0.01;100.00;99245.50;5071715;28;20205;-60
2021/12/25 03:46:39;;;;;;;84.63;42.70;;;;;;;-0.01;100.00;99231.91;5071594;28;20695;-55
2021/12/25 03:49:13;;;;;;;87.57;42.03;;;;;;;-0.11;100.00;99207.97;5071710;28;20199;-55
2021/12/25 04:00:04;;;;;;;74.20;37.57;;;;;;;-0.20;100.00;99237.66;5070906;28;20749;-55
2021/12/25 04:02:38;;;;;;;76.83;39.83;;;;;;;-0.13;100.00;99245.41;5071425;28;20197;-62
2021/12/25 04:05:13;;;;;;;76.83;39.70;;;;;;;-0.16;100.00;99232.63;5071147;28;20199;-61
2021/12/25 04:10:25;;;;;;;85.87;40.83;;;;;;;-0.02;100.00;99233.59;5071217;28;20205;-59
2021/12/25 04:12:52;;;;;;;77.77;40.40;;;;;;;0.00;100.00;99233.63;5071205;28;20286;-56
2021/12/25 04:15:20;;;;;;;83.73;40.77;;;;;;;-0.09;100.00;99220.75;5071032;28;20227;-55
2021/12/25 04:17:47;;;;;;;66.13;36.93;;;;;;;0.07;100.00;99229.41;5070924;28;20209;-55
2021/12/25 04:20:14;;;;;;;72.50;38.50;;;;;;;0.13;100.00;99229.44;5060069;28;20246;-55
2021/12/25 04:22:46;;;;;;;72.03;37.53;;;;;;;0.10;100.00;99207.34;5060684;28;20655;-55
2021/12/25 04:25:19;;;;;;;66.87;37.10;;;;;;;0.17;100.00;99221.84;5070366;28;20221;-56
2021/12/25 04:27:46;;;;;;;75.77;38.33;;;;;;;0.16;100.00;99243.09;5070409;28;20576;-55
2021/12/25 04:30:28;;;;;;;73.33;38.87;;;;;;;0.06;100.00;99231.09;5069855;28;20261;-55
2021/12/25 05:03:13;;;;;;;94.03;48.77;;;;;;;0.67;100.00;99262.22;5069975;28;20316;-56
2021/12/25 05:05:42;;;;;;;93.80;49.90;;;;;;;0.65;100.00;99262.19;5069594;28;20187;-55
2021/12/25 05:08:09;;;;;;;101.10;50.37;;;;;;;0.70;100.00;99273.28;5070298;28;20283;-55
2021/12/25 05:10:36;;;;;;;90.13;47.30;;;;;;;0.73;100.00;99259.69;5065746;28;20230;-59
2021/12/25 05:13:03;;;;;;;100.73;49.50;;;;;;;0.66;100.00;99263.91;5069500;28;20222;-60
2021/12/25 05:15:30;;;;;;;98.57;48.00;;;;;;;0.62;100.00;99272.38;5069573;28;20314;-61
2021/12/25 05:17:57;;;;;;;105.43;50.80;;;;;;;0.68;100.00;99277.53;5069913;28;20306;-61
2021/12/25 05:20:25;;;;;;;101.27;50.03;;;;;;;0.48;100.00;99230.56;5069826;28;20227;-60
2021/12/25 05:22:53;;;;;;;97.30;48.90;;;;;;;0.72;100.00;99274.16;5069822;28;20667;-61
2021/12/25 05:25:20;;;;;;;110.07;53.13;;;;;;;0.69;100.00;99294.56;5069179;28;20307;-60
2021/12/25 05:27:49;;;;;;;118.67;57.30;;;;;;;0.81;100.00;99295.50;5069655;28;20219;-61
2021/12/25 05:30:17;;;;;;;114.87;59.03;;;;;;;0.76;100.00;99287.81;5069275;28;20277;-61
2021/12/25 05:32:45;;;;;;;126.40;60.73;;;;;;;0.76;100.00;99284.41;5069466;28;20307;-60
2021/12/25 05:35:12;;;;;;;120.00;57.97;;;;;;;0.62;100.00;99254.50;5069293;28;20258;-60
2021/12/25 05:37:39;;;;;;;120.67;58.17;;;;;;;0.67;100.00;99285.19;5069564;28;20222;-60
2021/12/25 05:40:08;;;;;;;127.23;57.77;;;;;;;0.77;100.00;99281.00;5069038;28;20711;-60
2021/12/25 05:42:35;;;;;;;114.77;57.53;;;;;;;0.77;100.00;99275.91;5069740;28;20223;-58
2021/12/25 05:45:02;;;;;;;113.10;58.27;;;;;;;0.75;100.00;99278.44;5068874;28;20219;-61
2021/12/25 05:47:29;;;;;;;123.47;57.93;;;;;;;0.75;100.00;99277.56;5068173;28;20314;-55
2021/12/25 05:49:56;;;;;;;119.03;58.27;;;;;;;0.72;100.00;99274.16;5069555;28;20710;-55
2021/12/25 05:52:24;;;;;;;118.67;59.00;;;;;;;0.72;100.00;99263.94;5069456;28;20222;-56
2021/12/25 05:54:51;;;;;;;117.53;58.70;;;;;;;0.76;100.00;99262.28;5068837;28;20230;-55
2021/12/25 05:57:20;;;;;;;121.33;58.67;;;;;;;0.81;100.00;99285.25;5069258;28;20223;-59
2021/12/25 05:59:47;;;;;;;112.50;56.47;;;;;;;0.72;100.00;99297.16;5069492;28;20678;-59
2021/12/25 06:02:13;;;;;;;112.13;55.90;;;;;;;0.73;100.00;99298.84;5069273;28;20220;-55
2021/12/25 06:04:40;;;;;;;105.17;51.17;;;;;;;0.80;100.00;99302.28;5069171;28;20220;-56
2021/12/25 06:07:07;;;;;;;96.43;49.33;;;;;;;0.67;100.00;99301.38;5069421;28;20612;-55
2021/12/25 06:09:35;;;;;;;100.77;51.30;;;;;;;0.65;100.00;99307.31;5066773;28;20224;-55
2021/12/25 06:12:04;;;;;;;97.03;48.00;;;;;;;0.70;100.00;99303.94;5069449;28;20220;-55
2021/12/25 06:14:32;;;;;;;93.87;49.93;;;;;;;0.76;100.00;99299.72;5067196;28;20318;-56
2021/12/25 06:16:59;;;;;;;90.50;47.30;;;;;;;0.61;100.00;99280.88;5068837;28;20232;-55
2021/12/25 06:19:26;;;;;;;93.70;48.10;;;;;;;0.72;100.00;99309.91;5069331;28;20723;-62
2021/12/25 06:21:53;;;;;;;97.80;48.13;;;;;;;0.74;100.00;99320.16;5070703;28;20223;-60
2021/12/25 06:24:20;;;;;;;122.90;58.83;;;;;;;0.67;100.00;99329.47;5072295;28;20227;-61
2021/12/25 06:26:47;;;;;;;112.37;53.40;;;;;;;0.67;100.00;99328.63;5072432;28;20227;-56
2021/12/25 06:29:19;;;;;;;108.37;52.73;;;;;;;0.56;100.00;99304.69;5072867;28;20195;-55
2021/12/25 06:31:47;;;;;;;107.27;52.07;;;;;;;0.65;100.00;99297.09;5073364;28;20587;-60
2021/12/25 06:34:14;;;;;;;100.67;51.97;;;;;;;0.92;100.00;99327.06;5072729;28;20633;-60
2021/12/25 06:36:41;;;;;;;109.63;53.47;;;;;;;0.99;100.00;99328.84;5072745;28;20230;-60
2021/12/25 06:39:12;;;;;;;100.00;51.97;;;;;;;1.01;100.00;99314.38;5072914;28;20198;-61
2021/12/25 06:41:39;;;;;;;111.97;53.60;;;;;;;1.17;100.00;99313.59;5072889;28;20198;-55
2021/12/25 06:44:06;;;;;;;114.90;53.87;;;;;;;1.26;100.00;99294.91;5072852;28;20196;-54
2021/12/25 06:46:33;;;;;;;97.67;51.87;;;;;;;1.33;100.00;99310.28;5072912;28;20684;-55
2021/12/25 06:49:02;;;;;;;108.63;54.07;;;;;;;1.49;100.00;99325.69;5073053;28;20621;-55
2021/12/25 06:51:29;;;;;;;103.33;54.67;;;;;;;1.65;100.00;99327.47;5072289;28;20735;-55
2021/12/25 06:53:56;;;;;;;111.83;55.97;;;;;;;1.72;100.00;99335.16;5071994;28;20188;-54
2021/12/25 06:56:23;;;;;;;116.43;58.23;;;;;;;1.68;100.00;99340.28;5069160;28;20259;-54
2021/12/25 06:58:50;;;;;;;119.50;57.77;;;;;;;1.61;100.00;99341.09;5071917;28;20235;-55
2021/12/25 07:01:17;;;;;;;110.23;53.10;;;;;;;1.54;100.00;99334.25;5071758;28;20506;-60
2021/12/25 07:03:44;;;;;;;105.03;53.10;;;;;;;1.57;100.00;99339.38;5072114;28;20196;-60
2021/12/25 07:06:12;;;;;;;87.73;45.73;;;;;;;1.50;100.00;99330.81;5071895;28;20184;-60
2021/12/25 07:08:39;;;;;;;90.73;47.00;;;;;;;1.48;100.00;99342.72;5072103;28;20280;-59
2021/12/25 07:11:06;;;;;;;94.60;47.23;;;;;;;1.53;100.00;99338.50;5071771;28;20660;-60
2021/12/25 07:13:33;;;;;;;85.30;45.20;;;;;;;1.66;100.00;99331.75;5071869;28;20281;-60
2021/12/25 07:16:00;;;;;;;85.00;44.50;;;;;;;1.65;100.00;99333.44;5071500;28;20212;-55
2021/12/25 07:18:27;;;;;;;83.07;42.00;;;;;;;1.82;100.00;99353.97;5065859;28;20767;-59
2021/12/25 07:20:54;;;;;;;82.87;42.37;;;;;;;1.97;100.00;99371.09;5071862;28;20570;-56
2021/12/25 07:23:23;;;;;;;78.80;42.77;;;;;;;2.02;100.00;99367.69;5071757;28;20195;-55
2021/12/25 07:25:50;;;;;;;92.23;47.40;;;;;;;2.15;100.00;99379.66;5071625;28;20647;-55
2021/12/25 07:28:17;;;;;;;104.60;50.83;;;;;;;2.30;100.00;99380.56;5071218;28;20237;-55
2021/12/25 07:30:44;;;;;;;80.67;43.37;;;;;;;2.39;100.00;99370.31;5070650;28;20210;-55
2021/12/25 07:33:11;;;;;;;68.73;36.97;;;;;;;2.42;100.00;99380.56;5070473;28;20206;-56
2021/12/25 07:35:38;;;;;;;63.87;34.90;;;;;;;2.64;100.00;99377.19;5071343;28;20232;-56
2021/12/25 07:38:05;;;;;;;66.87;35.57;;;;;;;2.60;100.00;99379.78;5072112;28;20280;-55
2021/12/25 07:40:33;;;;;;;61.50;35.27;;;;;;;2.65;100.00;99373.78;5069843;28;20224;-55
2021/12/25 07:43:00;;;;;;;55.93;33.07;;;;;;;2.62;100.00;99371.22;5063337;28;20204;-54
2021/12/25 07:45:28;;;;;;;69.97;38.87;;;;;;;2.82;100.00;99373.78;5068825;28;20196;-56
2021/12/25 07:47:59;;;;;;;67.30;37.10;;;;;;;2.92;100.00;99373.78;5069791;28;20271;-55
2021/12/25 07:50:27;;;;;;;76.70;41.13;;;;;;;3.05;99.15;99382.31;5070365;28;20632;-61
2021/12/25 07:52:55;;;;;;;85.27;44.90;;;;;;;2.92;98.97;99363.53;5070032;28;20276;-60
2021/12/25 07:55:22;;;;;;;86.67;47.53;;;;;;;3.03;99.02;99385.75;5070004;28;20193;-60
2021/12/25 07:57:50;;;;;;;72.70;44.03;;;;;;;3.14;97.95;99378.91;5067189;28;20307;-59
2021/12/25 08:00:18;;;;;;;75.67;44.13;;;;;;;3.37;97.37;99366.88;5068720;28;20209;-61
2021/12/25 08:02:46;;;;;;;87.07;47.57;;;;;;;3.57;96.29;99369.41;5070328;28;20193;-62
2021/12/25 08:05:14;;;;;;;87.80;50.63;;;;;;;3.50;95.85;99352.31;5069968;28;20193;-63
2021/12/25 08:07:41;;;;;;;89.67;51.77;;;;;;;3.87;95.50;99387.25;5067357;28;20648;-61
2021/12/25 08:10:13;;;;;;;106.87;57.27;;;;;;;4.09;94.16;99387.16;5070132;28;20195;-59
2021/12/25 08:12:43;;;;;;;124.43;66.13;;;;;;;3.96;94.00;99348.69;5070592;28;20235;-58
2021/12/25 08:15:13;;;;;;;126.87;72.03;;;;;;;4.17;93.59;99378.56;5066530;28;20605;-60
2021/12/25 08:17:41;;;;;;;182.17;92.83;;;;;;;4.21;94.49;99372.53;5069536;28;20233;-56
2021/12/25 08:20:09;;;;;;;162.03;87.13;;;;;;;4.06;93.50;99359.78;5071257;28;20249;-55
2021/12/25 08:22:37;;;;;;;153.03;83.33;;;;;;;4.17;93.51;99383.72;5069184;28;20205;-56
2021/12/25 08:25:05;;;;;;;151.20;82.70;;;;;;;4.19;92.38;99356.28;5067802;28;20200;-56
2021/12/25 08:27:32;;;;;;;149.47;81.70;;;;;;;4.24;91.89;99341.69;5070426;28;20226;-57
2021/12/25 08:29:59;;;;;;;152.40;83.17;;;;;;;4.54;91.50;99362.91;5070359;28;20926;-56
2021/12/25 08:32:28;;;;;;;143.20;78.90;;;;;;;4.58;90.90;99362.03;5055105;28;20196;-55
2021/12/25 08:34:55;;;;;;;140.83;77.17;;;;;;;4.55;91.19;99362.03;5050458;28;20232;-55
2021/12/25 08:37:24;;;;;;;137.77;76.63;;;;;;;4.57;91.31;99356.03;5050578;28;20231;-55
2021/12/25 08:39:51;;;;;;;143.03;79.57;;;;;;;4.65;91.25;99366.25;5060410;28;20617;-56
2021/12/25 08:42:19;;;;;;;140.07;79.13;;;;;;;4.56;91.60;99356.03;5070318;28;20779;-60
2021/12/25 08:45:04;;;;;;;149.30;81.47;;;;;;;4.68;91.27;99366.22;5069708;28;20306;-59
2021/12/25 08:47:34;;;;;;;140.53;76.90;;;;;;;4.72;91.28;99365.34;5069340;28;20262;-60
2021/12/25 08:50:02;;;;;;;145.73;79.30;;;;;;;4.66;91.87;99347.38;5049722;28;20629;-60
2021/12/25 08:52:29;;;;;;;147.60;78.70;;;;;;;4.81;91.48;99352.41;5058461;28;20677;-61
2021/12/25 08:54:55;;;;;;;136.10;73.30;;;;;;;4.85;91.18;99354.13;5067263;28;20616;-60
2021/12/25 08:57:23;;;;;;;127.73;69.87;;;;;;;4.79;91.13;99333.56;5069113;28;20223;-60
2021/12/25 08:59:53;;;;;;;117.27;66.03;;;;;;;5.00;90.37;99343.66;5068097;28;20228;-61
2021/12/25 09:02:22;;;;;;;119.10;65.60;;;;;;;4.94;90.37;99315.44;5068367;28;20286;-60
2021/12/25 09:04:52;;;;;;;109.83;62.73;;;;;;;5.26;90.02;99337.44;5066347;28;20200;-61
2021/12/25 09:07:20;;;;;;;98.37;56.47;;;;;;;5.45;89.99;99331.22;5068783;28;20224;-60
2021/12/25 09:09:47;;;;;;;98.07;56.30;;;;;;;5.60;89.18;99317.31;5069519;28;20207;-60
2021/12/25 09:12:16;;;;;;;91.27;49.90;;;;;;;5.79;87.56;99329.09;5070073;28;20200;-60
2021/12/25 09:14:44;;;;;;;104.30;50.13;;;;;;;5.83;87.14;99326.47;5066994;28;20192;-60
2021/12/25 09:17:11;;;;;;;77.97;45.27;;;;;;;5.98;85.55;99322.03;5069881;28;20218;-60
2021/12/25 09:19:38;;;;;;;103.00;54.90;;;;;;;5.97;85.52;99320.31;5069836;28;20551;-60
2021/12/25 09:22:09;;;;;;;108.80;59.40;;;;;;;5.97;86.56;99330.63;5054327;28;20251;-60
2021/12/25 09:24:36;;;;;;;114.93;60.93;;;;;;;6.12;86.14;99325.25;5049719;28;20316;-58
2021/12/25 09:27:04;;;;;;;112.33;59.03;;;;;;;6.22;85.06;99290.72;5051854;28;20833;-59
2021/12/25 09:29:32;;;;;;;98.60;52.07;;;;;;;6.45;84.76;99317.03;5069904;28;20224;-58
2021/12/25 09:31:59;;;;;;;102.27;54.50;;;;;;;6.57;85.12;99301.34;5068926;28;20298;-59
2021/12/25 09:34:26;;;;;;;92.20;51.17;;;;;;;6.60;84.87;99302.19;5069409;28;20243;-60
2021/12/25 09:36:53;;;;;;;87.80;48.07;;;;;;;6.75;84.00;99299.38;5069475;28;20318;-59
2021/12/25 09:39:21;;;;;;;90.43;47.90;;;;;;;6.78;84.05;99305.31;5069372;28;20223;-59
2021/12/25 09:41:48;;;;;;;82.87;45.00;;;;;;;6.76;84.08;99298.50;5069373;28;20220;-60
2021/12/25 09:44:15;;;;;;;78.97;43.97;;;;;;;6.85;83.25;99290.59;5069559;28;20216;-60
2021/12/25 09:46:42;;;;;;;73.00;44.03;;;;;;;6.89;82.45;99281.91;5069096;28;20224;-59
2021/12/25 09:49:10;;;;;;;75.77;42.83;;;;;;;6.95;83.12;99274.06;5069537;28;20219;-61
2021/12/25 09:51:38;;;;;;;75.40;44.50;;;;;;;6.87;82.83;99281.97;5069596;28;20683;-62
2021/12/25 09:54:09;;;;;;;65.97;39.07;;;;;;;6.87;83.12;99281.97;5069009;28;20692;-60
2021/12/25 09:56:40;;;;;;;64.60;38.43;;;;;;;6.85;83.25;99278.53;5067170;28;20215;-60
2021/12/25 09:59:10;;;;;;;63.40;36.87;;;;;;;6.85;82.39;99267.38;5072120;28;20300;-60
2021/12/25 10:01:39;;;;;;;61.77;38.83;;;;;;;6.96;83.13;99262.88;5069375;28;20215;-60
2021/12/25 10:04:08;;;;;;;64.03;37.07;;;;;;;7.01;82.93;99268.78;5071484;28;20216;-59
2021/12/25 10:06:37;;;;;;;65.97;36.80;;;;;;;7.12;82.25;99261.69;5069826;28;20302;-60
2021/12/25 10:09:18;;;;;;;64.97;39.47;;;;;;;7.14;82.46;99267.69;5071074;28;20697;-59
2021/12/25 10:12:01;;;;;;;61.00;36.47;;;;;;;7.24;82.60;99264.03;5070741;28;20239;-60
2021/12/25 10:14:29;;;;;;;60.63;38.60;;;;;;;7.23;83.49;99258.91;5070713;28;20233;-60
2021/12/25 10:16:56;;;;;;;60.33;37.53;;;;;;;7.27;83.73;99255.41;5071432;28;20231;-60
2021/12/25 10:19:27;;;;;;;65.83;39.87;;;;;;;7.34;83.86;99256.13;5071066;28;20255;-61
2021/12/25 10:22:05;;;;;;;65.20;40.10;;;;;;;7.37;83.56;99250.91;5069057;28;20277;-61
2021/12/25 10:24:38;;;;;;;71.60;40.17;;;;;;;7.37;83.69;99245.72;5070740;28;20218;-60
2021/12/25 10:27:15;;;;;;;72.53;41.30;;;;;;;7.45;84.10;99249.84;5070538;28;20678;-61
2021/12/25 10:29:43;;;;;;;72.97;40.70;;;;;;;7.45;83.51;99243.88;5071731;28;20231;-58
2021/12/25 10:32:20;;;;;;;66.13;38.90;;;;;;;7.56;83.06;99242.72;5072948;28;20609;-59
2021/12/25 10:34:47;;;;;;;60.33;36.73;;;;;;;7.59;83.14;99241.81;5072100;28;20231;-59
2021/12/25 10:37:17;;;;;;;69.80;44.13;;;;;;;7.73;83.40;99242.38;5072308;28;20245;-55
2021/12/25 10:39:45;;;;;;;90.87;50.60;;;;;;;7.80;83.50;99235.34;5072395;28;20249;-59
2021/12/25 10:42:17;;;;;;;81.03;46.40;;;;;;;7.90;84.10;99229.94;5072823;28;20609;-60
2021/12/25 10:44:46;;;;;;;72.33;45.57;;;;;;;7.91;83.21;99230.78;5071997;28;20219;-59
2021/12/25 10:47:15;;;;;;;72.77;44.27;;;;;;;7.90;83.89;99229.94;5071909;28;20222;-60
2021/12/25 10:49:44;;;;;;;66.53;41.03;;;;;;;7.93;83.41;99222.13;5069506;28;20234;-60
2021/12/25 10:52:15;;;;;;;70.03;41.17;;;;;;;7.97;82.74;99216.00;5072530;28;20262;-60
2021/12/25 10:54:44;;;;;;;72.27;40.83;;;;;;;8.05;82.11;99199.47;5071839;28;20291;-59
2021/12/25 10:57:30;;;;;;;73.63;43.07;;;;;;;7.97;83.39;99197.91;5072434;28;20235;-60
2021/12/25 10:59:57;;;;;;;80.83;45.10;;;;;;;8.15;83.28;99206.09;5071526;28;20227;-59
2021/12/25 11:02:35;;;;;;;71.53;42.73;;;;;;;8.11;83.50;99194.16;5071369;28;20223;-60
2021/12/25 11:05:20;;;;;;;67.23;41.70;;;;;;;8.20;82.65;99194.78;5071806;28;20353;-60
2021/12/25 11:07:48;;;;;;;63.57;38.70;;;;;;;8.36;81.51;99182.34;5071530;28;20262;-60
2021/12/25 11:10:18;;;;;;;65.00;38.97;;;;;;;8.51;80.85;99197.47;5072280;28;20215;-60
2021/12/25 11:12:46;;;;;;;61.40;37.67;;;;;;;8.51;80.86;99189.72;5072112;28;20216;-59
2021/12/25 11:15:19;;;;;;;69.00;45.03;;;;;;;8.47;81.22;99182.06;5071606;28;20302;-59
2021/12/25 11:17:51;;;;;;;57.47;35.67;;;;;;;8.68;80.51;99190.16;5072180;28;20641;-59
2021/12/25 11:20:28;;;;;;;50.83;34.37;;;;;;;8.89;79.15;99186.13;5072050;28;20220;-61
2021/12/25 11:22:58;;;;;;;54.27;34.93;;;;;;;8.96;79.74;99187.66;5071845;28;20219;-60
2021/12/25 11:25:29;;;;;;;57.53;34.57;;;;;;;8.93;79.70;99174.78;5071779;28;20829;-60
2021/12/25 11:27:59;;;;;;;54.23;34.03;;;;;;;8.92;79.13;99154.97;5071649;28;20649;-60
2021/12/25 11:30:28;;;;;;;55.97;34.93;;;;;;;9.09;78.88;99165.72;5071206;28;20227;-61
2021/12/25 11:32:56;;;;;;;61.53;37.00;;;;;;;9.14;79.61;99170.78;5071895;28;20672;-60
2021/12/25 11:35:24;;;;;;;55.77;35.10;;;;;;;9.10;79.43;99156.22;5071261;28;20232;-60
2021/12/25 11:37:54;;;;;;;51.10;32.60;;;;;;;9.20;79.20;99162.81;5071070;28;20242;-60
2021/12/25 11:40:24;;;;;;;72.63;40.37;;;;;;;9.28;79.42;99176.38;5071472;28;20219;-61
2021/12/25 11:42:55;;;;;;;54.00;32.63;;;;;;;9.39;78.42;99161.38;5071638;28;20361;-60
2021/12/25 11:45:28;;;;;;;45.57;31.50;;;;;;;9.41;78.50;99167.38;5071109;28;20275;-61
2021/12/25 11:47:57;;;;;;;48.53;30.70;;;;;;;9.52;77.73;99167.03;5071491;28;21349;-60
2021/12/25 11:50:34;;;;;;;48.20;32.57;;;;;;;9.52;77.80;99159.28;5071327;28;20723;-60
2021/12/25 11:53:09;;;;;;;62.70;37.30;;;;;;;9.63;77.52;99153.75;5071158;28;20606;-59
2021/12/25 11:56:13;;;;;;;54.23;31.73;;;;;;;9.71;76.97;99154.38;5071287;28;20235;-59
2021/12/25 11:58:41;;;;;;;50.27;32.50;;;;;;;9.82;77.03;99149.69;5070404;28;20231;-59
2021/12/25 12:01:31;;;;;;;44.77;28.63;;;;;;;9.85;77.38;99144.41;5070989;28;20277;-60
2021/12/25 12:04:01;;;;;;;39.60;25.53;;;;;;;9.87;77.56;99142.63;5071002;28;20212;-60
2021/12/25 12:07:00;;;;;;;36.83;25.13;;;;;;;9.94;77.03;99138.94;5070964;28;20602;-59
2021/12/25 12:09:30;;;;;;;37.13;23.03;;;;;;;10.02;77.24;99147.34;5070887;28;20242;-60
2021/12/25 12:12:17;;;;;;;35.43;22.70;;;;;;;10.02;76.34;99144.75;5070327;28;20220;-60
2021/12/25 12:14:44;;;;;;;30.17;22.30;;;;;;;10.09;76.39;99137.59;5070454;28;20222;-60
2021/12/25 12:17:31;;;;;;;34.27;22.63;;;;;;;10.16;76.20;99139.94;5070667;28;20611;-60
2021/12/25 12:20:02;;;;;;;34.80;23.37;;;;;;;10.23;77.38;99132.84;5069828;28;20220;-60
2021/12/25 12:23:00;;;;;;;35.10;23.97;;;;;;;10.11;78.09;99102.94;5070494;28;20311;-55
2021/12/25 12:25:47;;;;;;;33.73;22.93;;;;;;;10.22;79.18;99127.69;5070299;28;20274;-55
2021/12/25 12:28:14;;;;;;;29.90;21.53;;;;;;;10.45;84.84;99120.00;5069723;28;20249;-55
2021/12/25 12:30:48;;;;;;;27.53;20.03;;;;;;;10.46;82.70;99114.75;5058008;28;20228;-56
2021/12/25 12:33:36;;;;;;;27.30;18.47;;;;;;;10.58;79.70;99110.88;5050487;28;20248;-56
2021/12/25 12:36:20;;;;;;;40.17;20.00;;;;;;;10.68;78.81;99114.84;5050277;28;20254;-56